Aviation Digital Data Service (ADDS)

Output produced by METARs form (0040 UTC 26 July 2016)
found at http://www.aviationweather.gov/adds/metars/
 
KTHV 260030Z AUTO 00000KT 10SM TS SCT019 BKN070 23/23 A2991 RMK AO2 LTG DSNT NE-SE RAE28 TSB2358 P0066 T02280228
KTHV 260023Z AUTO VRB03KT 3SM -TSRA BR BKN021 BKN060 OVC070 23/23 A2990 RMK AO2 LTG DSNT NE-S TSB2358 P0066 T02280228
KTHV 260021Z AUTO 11006KT 1 1/2SM -TSRA BR BKN023 BKN060 OVC070 23/22 A2990 RMK AO2 LTG DSNT NE-S TSB2358 PRESFR P0066 T02280222
KTHV 260011Z AUTO 09005KT 1/4SM +TSRA FG BKN025 OVC060 23/22 A2993 RMK AO2 LTG DSNT NE-S TSB2358 P0061 T02280222
KTHV 260003Z AUTO 32007KT 3/4SM +TSRA BR BKN032 BKN055 BKN070 23/22 A2995 RMK AO2 LTG DSNT NE TSB2358 PRESRR P0027 T02330217
KTHV 252358Z AUTO 36009KT 330V030 2SM +TSRA BR SCT048 BKN065 24/22 A2994 RMK AO2 VIS 1V5 LTG DSNT NE AND W TSB58 PRESRR P0009 T02390217
KTHV 252353Z AUTO 36009KT 4SM VCTS +RA FEW044 SCT055 BKN065 24/21 A2993 RMK AO2 LTG DSNT ALQDS RAB19E30B49 SLP133 P0004 60020 T02440211 10350 20244 53019
KTHV 252316Z AUTO 02011G18KT 10SM VCTS SCT034 OVC070 27/21 A2992 RMK AO2 LTG DSNT NW-NE PRESRR T02720206
KTHV 252253Z AUTO 00000KT 10SM BKN080 30/25 A2986 RMK AO2 LTG DSNT NW-NE SLP108 T03000250
KTHV 252153Z AUTO 21003KT 10SM CLR 29/26 A2986 RMK AO2 RAE04 TSE13 SLP107 P0000 T02940256
KTHV 252119Z AUTO VRB04KT 10SM FEW017 29/26 A2985 RMK AO2 RAE04 TSE13 P0000 T02940256
KTHV 252107Z AUTO 19005KT 10SM TS FEW019 FEW039 SCT050 28/23 A2985 RMK AO2 RAE04 P0000 T02780233
KTHV 252100Z AUTO VRB05G18KT 1 3/4SM -TSRA FEW017 SCT039 SCT055 27/22 A2986 RMK AO2 P0000 T02720222
KTHV 252053Z AUTO 21013G26KT 3/4SM +TSRA FEW020 SCT039 BKN050 27/22 A2987 RMK AO2 PK WND 22026/2049 RAB48 TSB30 SLP114 P0016 60016 T02670217 55007
KTHV 252051Z AUTO 20009G26KT 3/4SM +TSRA FEW031 SCT043 SCT050 27/22 A2987 RMK AO2 PK WND 22026/2049 LTG DSNT SW AND W RAB48 TSB30 P0016
KTHV 252049Z AUTO 23020G26KT 1 1/2SM -TSRA FEW031 FEW043 SCT050 29/23 A2988 RMK AO2 PK WND 22026/2049 LTG DSNT SW AND W RAB48 TSB30 PRESRR P0008
KTHV 252036Z AUTO 25004KT 10SM TS CLR 34/23 A2985 RMK AO2 LTG DSNT SW AND W TSB30 T03390233
KTHV 251953Z AUTO 21007KT 10SM FEW055 35/23 A2985 RMK AO2 LTG DSNT W AND NW SLP106 T03500228
KTHV 251853Z AUTO 00000KT 10SM FEW065 33/23 A2988 RMK AO2 LTG DSNT N SLP114 T03330233
KTHV 251753Z AUTO 25005KT 10SM CLR 35/23 A2990 RMK AO2 LTG DSNT N AND NW SLP120 T03500228 10350 20256 58022
KTHV 251653Z AUTO VRB06KT 10SM FEW049 FEW120 34/23 A2992 RMK AO2 SLP129 T03440233
KTHV 251553Z AUTO VRB03KT 10SM CLR 33/24 A2994 RMK AO2 SLP136 T03330239
KTHV 251453Z AUTO VRB05KT 10SM CLR 32/23 A2996 RMK AO2 SLP143 T03170233 56005
KTHV 251353Z AUTO VRB03KT 10SM CLR 29/23 A2996 RMK AO2 SLP143 T02940228
KTHV 251253Z AUTO 00000KT 10SM CLR 27/23 A2996 RMK AO2 SLP144 T02720233
KTHV 251153Z AUTO 00000KT 9SM CLR 26/23 A2998 RMK AO2 SLP148 60003 70003 T02560228 10256 20222 51003
KTHV 251053Z AUTO 00000KT 4SM BR FEW100 23/22 A2997 RMK AO2 SLP147 T02280222
KTHV 250953Z AUTO 00000KT 6SM BR OVC100 23/22 A2998 RMK AO2 SLP148 T02280222
KTHV 250853Z AUTO 00000KT 4SM BR OVC110 23/22 A2997 RMK AO2 SLP145 60003 T02280222 55003
KTHV 250753Z AUTO 00000KT 3SM BR FEW120 23/22 A2996 RMK AO2 SLP144 T02280222
KTHV 250653Z AUTO 00000KT 6SM BR FEW055 23/23 A2997 RMK AO2 RAE14 SLP147 P0003 T02330228
KTHV 250553Z AUTO 28007KT 9SM -RA SCT060 BKN100 OVC120 24/22 A2997 RMK AO2 RAB51 SLP147 P0000 60000 T02440222 10300 20239 58009
KTHV 250453Z AUTO 00000KT 10SM BKN070 BKN110 24/22 A2999 RMK AO2 SLP152 T02440222 403330167
KTHV 250353Z AUTO 00000KT 10SM CLR 25/22 A2999 RMK AO2 SLP153 T02500222
KTHV 250253Z AUTO 00000KT 10SM SCT070 26/22 A3000 RMK AO2 RAB37E51 SLP157 P0000 60000 T02560222 50017
KTHV 250153Z AUTO 01003KT 10SM FEW060 SCT075 BKN090 26/22 A3002 RMK AO2 RAB31E53 SLP161 P0000 T02560222
KTHV 250053Z AUTO 25003KT 10SM BKN065 OVC080 29/20 A2998 RMK AO2 PRESRR SLP149 T02890200
KTHV 250038Z AUTO VRB03KT 10SM VCTS BKN070 BKN090 29/20 A2996 RMK AO2 LTG DSNT NW T02940200
KTHV 242353Z AUTO 15009KT 10SM SCT080 30/21 A2995 RMK AO2 SLP139 T03000206 10333 20300 55003
KTHV 242253Z AUTO 14006KT 10SM CLR 31/21 A2995 RMK AO2 SLP139 T03110206
KTHV 242153Z AUTO 14008KT 10SM CLR 32/20 A2995 RMK AO2 SLP140 T03220200
KTHV 242053Z AUTO VRB04KT 10SM CLR 32/19 A2996 RMK AO2 SLP143 T03220194 56016
KTHV 241953Z AUTO 20003KT 10SM CLR 32/18 A2997 RMK AO2 SLP146 T03220178
KTHV 241853Z AUTO 25006KT 10SM CLR 33/18 A2998 RMK AO2 SLP150 T03280183
KTHV 241753Z AUTO 10SM CLR 33/18 A3001 RMK AO2 SLP158 T03280178 10328 20233 58003
KTHV 241653Z AUTO VRB05KT 10SM CLR 32/18 A3002 RMK AO2 SLP164 T03170178
KTHV 241553Z AUTO VRB03KT 10SM CLR 31/17 A3003 RMK AO2 SLP165 T03110167
KTHV 241453Z AUTO 08004KT 10SM CLR 30/18 A3002 RMK AO2 SLP161 T03000178 56003
KTHV 241353Z AUTO 00000KT 10SM CLR 29/18 A3002 RMK AO2 SLP161 T02890178
KTHV 241253Z AUTO 00000KT 10SM CLR 26/18 A3002 RMK AO2 SLP164 T02610183